Terminal Aerodrome Forecast
Issued by NWS Charleston, WV

Current Version | Previous Version | Graphics & Text | Print | Product List | Glossary On
Versions: 1 2 3 4 5 6 7 8 9 10 11 12 13 14 15 16 17 18 19 20 21 22 23
000
FTUS41 KRLX 240850 AAA
TAFPKB
TAF AMD
KPKB 240850Z 2409/2506 00000KT 6SM BR FEW070
      TEMPO 2409/2411 5SM BR
     FM241100 01004KT P6SM BKN070
      TEMPO 2413/2416 BKN025
     FM241600 01004KT P6SM BKN040
     FM242000 36005KT P6SM SCT040
     FM250100 VRB03KT P6SM FEW250=

USA.gov is the U.S. government's official web portal to all federal, state and local government web resources and services.